createdAt,value
2023-11-30T00:02:01.104Z,1.92
2023-11-30T00:04:29.046Z,1.70
2023-11-30T00:06:57.110Z,1.63
2023-11-30T00:09:25.143Z,1.83
2023-11-30T00:11:56.095Z,2.22
2023-11-30T00:14:24.009Z,2.17
2023-11-30T00:16:53.334Z,1.55
2023-11-30T00:19:21.285Z,2.28
2023-11-30T00:21:52.339Z,1.92
2023-11-30T00:24:20.335Z,2.25
2023-11-30T00:26:48.355Z,2.40
2023-11-30T00:29:16.364Z,2.00
2023-11-30T00:31:46.805Z,2.00
2023-11-30T00:34:21.369Z,1.80
2023-11-30T00:36:49.373Z,2.20
2023-11-30T00:39:17.955Z,2.10
2023-11-30T00:41:45.977Z,2.17
2023-11-30T00:44:14.088Z,1.83
2023-11-30T00:46:42.154Z,2.22
2023-11-30T00:49:10.137Z,2.10
2023-11-30T00:51:39.425Z,2.20
2023-11-30T00:54:07.528Z,1.70
2023-11-30T00:56:35.512Z,1.95
2023-11-30T00:59:03.506Z,2.03
2023-11-30T01:01:31.672Z,1.88
2023-11-30T01:03:59.735Z,1.80
2023-11-30T01:06:27.799Z,1.80
2023-11-30T01:08:58.749Z,1.42
2023-11-30T01:11:27.894Z,1.83
2023-11-30T01:13:55.854Z,1.65
2023-11-30T01:16:26.874Z,1.85
2023-11-30T01:18:54.954Z,2.03
2023-11-30T01:21:22.956Z,2.05
2023-11-30T01:23:51.094Z,1.70
2023-11-30T01:26:20.474Z,2.28
2023-11-30T01:28:50.614Z,1.92
2023-11-30T01:31:18.748Z,1.40
2023-11-30T01:33:46.703Z,1.45
2023-11-30T01:36:15.381Z,1.60
2023-11-30T01:38:43.434Z,2.22
2023-11-30T01:41:11.366Z,1.75
2023-11-30T01:43:42.232Z,1.73
2023-11-30T01:46:10.958Z,2.00
2023-11-30T01:48:39.203Z,2.08
2023-11-30T01:51:17.312Z,2.78
2023-11-30T01:53:45.741Z,1.50
2023-11-30T01:56:16.064Z,1.90
2023-11-30T01:58:48.585Z,2.00
2023-11-30T02:01:16.521Z,1.83
2023-11-30T02:03:44.654Z,1.70
2023-11-30T02:06:17.252Z,1.80
2023-11-30T02:08:45.437Z,2.00
2023-11-30T02:11:13.679Z,2.17
2023-11-30T02:13:41.771Z,2.83
2023-11-30T02:16:12.333Z,1.55
2023-11-30T02:18:40.419Z,2.30
2023-11-30T02:21:08.868Z,2.25
2023-11-30T02:23:38.328Z,2.42
2023-11-30T02:26:06.803Z,1.98
2023-11-30T02:28:34.783Z,1.80
2023-11-30T02:31:02.760Z,2.42
2023-11-30T02:33:30.763Z,2.03
2023-11-30T02:35:58.755Z,2.58
2023-11-30T02:38:26.755Z,1.60
2023-11-30T02:40:56.073Z,1.98
2023-11-30T02:43:24.512Z,1.77
2023-11-30T02:45:53.401Z,1.80
2023-11-30T02:48:21.585Z,1.90
2023-11-30T02:50:49.597Z,2.22
2023-11-30T02:53:17.570Z,1.88
2023-11-30T02:55:47.976Z,2.00
2023-11-30T02:58:17.383Z,2.20
2023-11-30T03:00:47.296Z,1.80
2023-11-30T03:03:18.390Z,1.80
2023-11-30T03:05:46.430Z,1.90
2023-11-30T03:08:14.429Z,2.00
2023-11-30T03:10:42.393Z,1.90
2023-11-30T03:13:10.451Z,1.88
2023-11-30T03:15:45.578Z,1.85
2023-11-30T03:18:13.675Z,1.88
2023-11-30T03:20:41.816Z,2.65
2023-11-30T03:23:09.803Z,2.28
2023-11-30T03:25:37.978Z,2.42
2023-11-30T03:28:06.349Z,1.75
2023-11-30T03:30:34.463Z,1.85
2023-11-30T03:33:04.131Z,1.45
2023-11-30T03:35:32.162Z,2.20
2023-11-30T03:38:00.191Z,1.75
2023-11-30T03:40:28.200Z,2.08
2023-11-30T03:42:56.214Z,2.20
2023-11-30T03:45:24.573Z,2.40
2023-11-30T03:47:52.759Z,1.75
2023-11-30T03:50:22.146Z,1.85
2023-11-30T03:52:50.236Z,1.88
2023-11-30T03:55:19.192Z,1.98
2023-11-30T03:57:47.202Z,2.08
2023-11-30T04:00:17.416Z,1.75
2023-11-30T04:02:45.601Z,1.90
2023-11-30T04:05:14.253Z,2.03
2023-11-30T04:07:44.492Z,2.50
2023-11-30T04:10:13.936Z,1.52
2023-11-30T04:12:43.004Z,1.63
2023-11-30T04:15:11.538Z,1.67
2023-11-30T04:17:39.769Z,1.90
2023-11-30T04:20:09.699Z,1.85
2023-11-30T04:22:37.703Z,1.48
2023-11-30T04:25:08.056Z,2.10
2023-11-30T04:27:36.133Z,1.92
2023-11-30T04:30:10.720Z,1.55
2023-11-30T04:32:39.638Z,1.90
2023-11-30T04:35:08.373Z,1.77
2023-11-30T04:37:36.307Z,2.00
2023-11-30T04:40:04.561Z,1.30
2023-11-30T04:42:33.952Z,1.90
2023-11-30T04:45:01.926Z,1.88
2023-11-30T04:47:29.965Z,1.38
2023-11-30T04:49:58.021Z,2.33
2023-11-30T04:52:26.031Z,1.80
2023-11-30T04:54:54.020Z,1.98
2023-11-30T04:57:24.770Z,1.98
2023-11-30T04:59:54.450Z,1.60
2023-11-30T05:02:22.537Z,1.40
2023-11-30T05:04:51.042Z,1.80
2023-11-30T05:07:24.800Z,1.67
2023-11-30T05:09:52.776Z,2.30
2023-11-30T05:12:23.192Z,1.63
2023-11-30T05:14:51.161Z,1.63
2023-11-30T05:17:20.456Z,1.90
2023-11-30T05:19:48.438Z,1.70
2023-11-30T05:22:16.367Z,1.45
2023-11-30T05:24:44.412Z,1.80
2023-11-30T05:27:12.400Z,1.48
2023-11-30T05:29:40.426Z,2.08
2023-11-30T05:32:08.529Z,1.55
2023-11-30T05:34:37.875Z,1.95
2023-11-30T05:37:06.071Z,1.60
2023-11-30T05:39:34.108Z,1.60
2023-11-30T05:42:02.113Z,2.10
2023-11-30T05:44:30.059Z,1.40
2023-11-30T05:46:58.019Z,2.17
2023-11-30T05:49:26.026Z,1.83
2023-11-30T05:51:55.328Z,1.70
2023-11-30T05:54:23.369Z,1.55
2023-11-30T05:56:51.374Z,2.00
2023-11-30T05:59:19.322Z,2.17
2023-11-30T06:01:47.468Z,2.28
2023-11-30T06:04:15.596Z,2.15
2023-11-30T06:06:43.597Z,1.80
2023-11-30T06:09:16.140Z,2.00
2023-11-30T06:11:44.136Z,1.60
2023-11-30T06:14:12.115Z,1.38
2023-11-30T06:16:40.136Z,1.88
2023-11-30T06:19:08.173Z,1.60
2023-11-30T06:21:36.142Z,1.95
2023-11-30T06:24:04.297Z,1.55
2023-11-30T06:26:35.790Z,1.60
2023-11-30T06:29:03.782Z,1.95
2023-11-30T06:31:31.894Z,1.30
2023-11-30T06:33:59.880Z,1.60
2023-11-30T06:36:27.881Z,2.20
2023-11-30T06:38:55.904Z,1.77
2023-11-30T06:41:24.185Z,1.90
2023-11-30T06:43:53.554Z,1.80
2023-11-30T06:46:22.352Z,1.70
2023-11-30T06:48:51.563Z,1.88
2023-11-30T06:51:20.271Z,1.70
2023-11-30T06:53:48.304Z,2.15
2023-11-30T06:56:18.458Z,2.33
2023-11-30T06:58:46.524Z,1.60
2023-11-30T07:01:16.033Z,1.98
2023-11-30T07:03:44.841Z,1.42
2023-11-30T07:06:13.150Z,1.65
2023-11-30T07:08:41.309Z,1.85
2023-11-30T07:11:12.336Z,1.88
2023-11-30T07:13:40.401Z,1.70
2023-11-30T07:16:09.721Z,1.90
2023-11-30T07:18:39.131Z,2.00
2023-11-30T07:21:13.387Z,1.50
2023-11-30T07:23:41.659Z,1.88
2023-11-30T07:26:12.467Z,2.00
2023-11-30T07:28:40.445Z,1.52
2023-11-30T07:31:09.014Z,1.90
2023-11-30T07:33:39.590Z,2.10
2023-11-30T07:36:11.804Z,1.40
2023-11-30T07:38:41.069Z,2.03
2023-11-30T07:41:09.624Z,2.67
2023-11-30T07:43:37.649Z,3.45
2023-11-30T07:46:06.718Z,2.42
2023-11-30T07:48:34.816Z,3.40
2023-11-30T07:51:04.600Z,2.97
2023-11-30T07:53:32.656Z,1.90
2023-11-30T07:56:01.629Z,2.65
2023-11-30T07:58:29.689Z,2.00
2023-11-30T08:00:59.049Z,3.05
2023-11-30T08:03:28.669Z,2.90
2023-11-30T08:05:56.766Z,2.40
2023-11-30T08:08:26.696Z,2.40
2023-11-30T08:10:56.019Z,2.20
2023-11-30T08:13:24.470Z,1.90
2023-11-30T08:15:52.623Z,1.90
2023-11-30T08:18:25.685Z,2.10
2023-11-30T08:20:55.438Z,2.85
2023-11-30T08:23:23.653Z,2.30
2023-11-30T08:25:53.116Z,2.55
2023-11-30T08:28:24.300Z,2.25
2023-11-30T08:30:52.876Z,2.03
2023-11-30T08:33:20.947Z,2.30
2023-11-30T08:35:49.149Z,2.30
2023-11-30T08:38:17.628Z,3.03
2023-11-30T08:40:45.588Z,2.22
2023-11-30T08:43:16.251Z,2.22
2023-11-30T08:45:45.238Z,2.72
2023-11-30T08:48:14.019Z,2.60
2023-11-30T08:50:42.044Z,2.42
2023-11-30T08:53:10.057Z,2.30
2023-11-30T08:55:38.016Z,1.73
2023-11-30T08:58:06.220Z,1.88
2023-11-30T09:00:36.455Z,1.88
2023-11-30T09:03:04.618Z,2.13
2023-11-30T09:05:32.834Z,2.17
2023-11-30T09:08:00.857Z,3.38
2023-11-30T09:10:29.659Z,2.17
2023-11-30T09:12:57.658Z,2.22
2023-11-30T09:15:25.649Z,1.90
2023-11-30T09:17:57.729Z,2.50
2023-11-30T09:20:25.827Z,2.22
2023-11-30T09:22:54.130Z,2.15
2023-11-30T09:25:22.144Z,2.20
2023-11-30T09:27:50.546Z,1.73
2023-11-30T09:30:19.179Z,1.67
2023-11-30T09:32:47.249Z,2.10
2023-11-30T09:35:16.672Z,1.90
2023-11-30T09:37:45.980Z,1.75
2023-11-30T09:40:14.771Z,1.90
2023-11-30T09:42:42.870Z,2.33
2023-11-30T09:45:11.704Z,1.90
2023-11-30T09:47:40.175Z,1.63
2023-11-30T09:50:09.186Z,1.90
2023-11-30T09:52:39.376Z,1.70
2023-11-30T09:55:11.744Z,1.80
2023-11-30T09:57:40.909Z,1.85
2023-11-30T10:00:11.255Z,2.33
2023-11-30T10:02:39.746Z,1.63
2023-11-30T10:05:10.540Z,1.60
2023-11-30T10:07:40.608Z,2.00
2023-11-30T10:10:10.093Z,1.58
2023-11-30T10:12:38.160Z,1.30
2023-11-30T10:15:07.188Z,1.55
2023-11-30T10:17:35.360Z,1.95
2023-11-30T10:20:05.446Z,1.98
2023-11-30T10:22:33.849Z,1.65
2023-11-30T10:25:03.323Z,1.58
2023-11-30T10:27:33.598Z,1.52
2023-11-30T10:30:04.863Z,2.15
2023-11-30T10:32:35.343Z,2.10
2023-11-30T10:35:07.477Z,1.60
2023-11-30T10:37:45.165Z,1.70
2023-11-30T10:40:18.027Z,1.90
2023-11-30T10:42:49.377Z,1.42
2023-11-30T10:45:16.756Z,1.80
2023-11-30T10:47:45.074Z,1.42
2023-11-30T10:50:13.921Z,1.50
2023-11-30T10:52:46.882Z,1.92
2023-11-30T10:55:20.985Z,1.52
2023-11-30T10:57:49.364Z,1.52
2023-11-30T11:00:18.893Z,1.60
2023-11-30T11:02:48.854Z,1.80
2023-11-30T11:05:21.761Z,2.15
2023-11-30T11:07:51.260Z,1.80
2023-11-30T11:10:25.040Z,1.70
2023-11-30T11:12:53.562Z,1.30
2023-11-30T11:15:22.877Z,1.42
2023-11-30T11:17:53.016Z,1.65
2023-11-30T11:20:25.922Z,1.77
2023-11-30T11:22:55.681Z,1.35
2023-11-30T11:25:27.167Z,1.40
2023-11-30T11:27:55.831Z,1.60
2023-11-30T11:30:27.516Z,1.80
2023-11-30T11:32:59.185Z,1.85
2023-11-30T11:35:30.477Z,1.75
2023-11-30T11:37:59.796Z,1.65
2023-11-30T11:40:29.464Z,1.17
2023-11-30T11:42:57.444Z,1.73
2023-11-30T11:45:25.627Z,1.63
2023-11-30T11:47:54.541Z,2.00
2023-11-30T11:50:22.718Z,1.80
2023-11-30T11:52:51.126Z,1.50
2023-11-30T11:55:19.544Z,1.60
2023-11-30T11:57:48.979Z,1.60
2023-11-30T12:00:19.163Z,1.40
2023-11-30T12:02:48.007Z,1.50
2023-11-30T12:05:17.557Z,1.77
2023-11-30T12:07:50.237Z,1.50
2023-11-30T12:10:32.181Z,1.45
2023-11-30T12:13:03.235Z,1.60
2023-11-30T12:15:31.751Z,1.80
2023-11-30T12:17:59.901Z,1.70
2023-11-30T12:20:27.963Z,1.60
2023-11-30T12:22:56.906Z,1.95
2023-11-30T12:25:26.725Z,1.60
2023-11-30T12:27:54.760Z,1.80
2023-11-30T12:30:25.134Z,1.70
2023-11-30T12:32:53.520Z,1.95
2023-11-30T12:35:21.825Z,1.45
2023-11-30T12:37:50.347Z,1.67
2023-11-30T12:40:19.161Z,1.50
2023-11-30T12:42:48.352Z,2.00
2023-11-30T12:45:16.641Z,1.83
2023-11-30T12:47:47.136Z,1.75
2023-11-30T12:50:15.437Z,1.70
2023-11-30T12:52:43.793Z,1.30
2023-11-30T12:55:12.101Z,1.45
2023-11-30T12:57:40.846Z,1.42
2023-11-30T13:00:15.984Z,1.83
2023-11-30T13:02:48.353Z,1.67
2023-11-30T13:05:16.949Z,1.80
2023-11-30T13:07:45.025Z,1.65
2023-11-30T13:10:13.350Z,1.30
2023-11-30T13:12:43.097Z,1.75
2023-11-30T13:15:13.091Z,1.27
2023-11-30T13:17:42.052Z,2.05
2023-11-30T13:20:14.683Z,1.60
2023-11-30T13:22:45.418Z,1.50
2023-11-30T13:25:14.710Z,1.63
2023-11-30T13:27:43.602Z,1.55
2023-11-30T13:30:13.795Z,1.45
2023-11-30T13:32:42.443Z,1.92
2023-11-30T13:35:11.976Z,6.32
2023-11-30T13:37:40.197Z,4.18
2023-11-30T13:40:09.219Z,3.28
2023-11-30T13:42:37.375Z,3.38
2023-11-30T13:45:06.861Z,3.22
2023-11-30T13:47:35.338Z,2.88
2023-11-30T13:50:04.666Z,3.30
2023-11-30T13:52:35.350Z,3.13
2023-11-30T13:55:03.518Z,2.58
2023-11-30T13:57:31.592Z,2.85
2023-11-30T13:59:59.599Z,3.05
2023-11-30T14:02:27.576Z,2.38
2023-11-30T14:04:55.847Z,2.70
2023-11-30T14:07:23.852Z,2.65
2023-11-30T14:09:53.602Z,3.72
2023-11-30T14:12:22.432Z,2.92
2023-11-30T14:14:50.446Z,2.67
2023-11-30T14:17:18.800Z,2.35
2023-11-30T14:19:47.136Z,2.85
2023-11-30T14:22:15.329Z,2.50
2023-11-30T14:24:43.427Z,2.53
2023-11-30T14:27:12.791Z,2.55
2023-11-30T14:29:40.813Z,2.58
2023-11-30T14:32:09.557Z,2.65
2023-11-30T14:34:37.847Z,2.10
2023-11-30T14:37:06.129Z,2.53
2023-11-30T14:39:34.154Z,2.42
2023-11-30T14:42:02.126Z,3.17
2023-11-30T14:44:31.739Z,2.50
2023-11-30T14:47:00.355Z,2.40
2023-11-30T14:49:28.397Z,2.53
2023-11-30T14:51:56.482Z,2.50
2023-11-30T14:54:24.612Z,2.60
2023-11-30T14:56:52.758Z,2.15
2023-11-30T14:59:20.749Z,2.60
2023-11-30T15:01:50.297Z,2.70
2023-11-30T15:04:18.380Z,2.45
2023-11-30T15:06:49.389Z,2.55
2023-11-30T15:09:17.522Z,1.60
2023-11-30T15:11:45.539Z,2.55
2023-11-30T15:14:13.579Z,2.95
2023-11-30T15:16:42.057Z,2.58
2023-11-30T15:19:11.576Z,2.85
2023-11-30T15:21:39.843Z,2.45
2023-11-30T15:24:08.612Z,2.50
2023-11-30T15:26:36.608Z,2.20
2023-11-30T15:29:05.030Z,2.33
2023-11-30T15:31:33.388Z,2.35
2023-11-30T15:34:01.543Z,2.65
2023-11-30T15:36:31.252Z,2.38
2023-11-30T15:39:12.425Z,2.40
2023-11-30T15:41:45.887Z,3.13
2023-11-30T15:44:14.385Z,2.50
2023-11-30T15:46:44.530Z,2.10
2023-11-30T15:49:13.213Z,2.30
2023-11-30T15:51:43.557Z,2.40
2023-11-30T15:54:11.660Z,2.13
2023-11-30T15:56:39.681Z,2.05
2023-11-30T15:59:07.668Z,2.15
2023-11-30T16:01:35.769Z,2.20
2023-11-30T16:04:04.206Z,2.03
2023-11-30T16:06:35.128Z,2.15
2023-11-30T16:09:05.170Z,2.20
2023-11-30T16:11:33.351Z,1.90
2023-11-30T16:14:01.365Z,1.70
2023-11-30T16:16:29.782Z,1.98
2023-11-30T16:18:58.819Z,1.90
2023-11-30T16:21:28.764Z,2.10
2023-11-30T16:23:56.951Z,1.90
2023-11-30T16:26:26.598Z,2.15
2023-11-30T16:28:55.028Z,2.00
2023-11-30T16:31:23.077Z,2.15
2023-11-30T16:33:52.574Z,1.92
2023-11-30T16:36:20.943Z,2.10
2023-11-30T16:38:48.952Z,1.90
2023-11-30T16:41:19.256Z,2.22
2023-11-30T16:43:48.623Z,1.50
2023-11-30T16:46:17.364Z,1.83
2023-11-30T16:48:45.818Z,1.90
2023-11-30T16:51:13.950Z,2.05
2023-11-30T16:53:42.016Z,2.28
2023-11-30T16:56:10.605Z,2.05
2023-11-30T16:58:38.562Z,2.13
2023-11-30T17:01:09.032Z,2.20
2023-11-30T17:03:37.118Z,2.10
2023-11-30T17:06:05.268Z,2.22
2023-11-30T17:08:33.312Z,1.85
2023-11-30T17:11:01.288Z,1.92
2023-11-30T17:13:29.226Z,1.90
2023-11-30T17:15:58.279Z,1.67
2023-11-30T17:18:27.645Z,2.20
2023-11-30T17:20:55.616Z,2.15
2023-11-30T17:23:23.625Z,2.13
2023-11-30T17:25:51.710Z,2.10
2023-11-30T17:28:19.687Z,2.00
2023-11-30T17:30:47.651Z,1.88
2023-11-30T17:33:16.017Z,1.80
2023-11-30T17:35:45.557Z,1.88
2023-11-30T17:38:13.587Z,2.17
2023-11-30T17:40:41.589Z,1.65
2023-11-30T17:43:09.560Z,1.80
2023-11-30T17:45:37.716Z,2.10
2023-11-30T17:48:06.669Z,1.88
2023-11-30T17:50:34.695Z,1.85
2023-11-30T17:53:04.126Z,1.70
2023-11-30T17:55:33.745Z,2.20
2023-11-30T17:58:01.864Z,2.55
2023-11-30T18:00:30.535Z,2.03
2023-11-30T18:02:59.510Z,1.98
2023-11-30T18:05:27.525Z,1.75
2023-11-30T18:07:55.457Z,2.20
2023-11-30T18:10:24.916Z,1.70
2023-11-30T18:12:52.960Z,1.80
2023-11-30T18:15:21.001Z,2.00
2023-11-30T18:17:50.326Z,1.65
2023-11-30T18:20:18.729Z,1.70
2023-11-30T18:22:46.764Z,2.00
2023-11-30T18:25:14.922Z,2.25
2023-11-30T18:27:44.389Z,2.03
2023-11-30T18:30:13.726Z,2.28
2023-11-30T18:32:43.167Z,2.17
2023-11-30T18:35:11.419Z,2.13
2023-11-30T18:37:39.402Z,1.95
2023-11-30T18:40:08.621Z,1.83
2023-11-30T18:42:36.637Z,1.83
2023-11-30T18:45:07.290Z,2.53
2023-11-30T18:47:37.978Z,1.95
2023-11-30T18:50:06.878Z,2.70
2023-11-30T18:52:35.535Z,2.28
2023-11-30T18:57:31.561Z,2.05
2023-11-30T19:00:01.490Z,2.17
2023-11-30T19:02:30.916Z,2.00
2023-11-30T19:04:59.131Z,2.20
2023-11-30T19:07:27.159Z,2.28
2023-11-30T19:09:55.220Z,2.38
2023-11-30T19:12:23.286Z,2.08
2023-11-30T19:14:51.785Z,2.10
2023-11-30T19:17:20.040Z,2.00
2023-11-30T19:19:49.545Z,2.20
2023-11-30T19:22:18.358Z,1.83
2023-11-30T19:24:46.310Z,2.22
2023-11-30T19:27:14.257Z,2.40
2023-11-30T19:29:42.246Z,2.40
2023-11-30T19:32:10.339Z,2.05
2023-11-30T19:34:38.738Z,2.25
2023-11-30T19:37:08.086Z,1.77
2023-11-30T19:39:36.080Z,1.92
2023-11-30T19:42:04.126Z,1.90
2023-11-30T19:44:32.106Z,1.80
2023-11-30T19:47:00.363Z,2.40
2023-11-30T19:49:28.410Z,1.70
2023-11-30T19:51:56.501Z,1.75
2023-11-30T19:54:26.623Z,2.00
2023-11-30T19:56:54.604Z,2.20
2023-11-30T19:59:22.783Z,1.77
2023-11-30T20:01:50.898Z,2.08
2023-11-30T20:04:19.092Z,2.22
2023-11-30T20:06:47.288Z,2.55
2023-11-30T20:09:15.313Z,2.65
2023-11-30T20:11:44.576Z,2.00
2023-11-30T20:14:12.585Z,2.30
2023-11-30T20:16:41.607Z,2.33
2023-11-30T20:19:09.833Z,2.08
2023-11-30T20:21:37.848Z,2.70
2023-11-30T20:24:06.205Z,2.55
2023-11-30T20:26:34.241Z,2.60
2023-11-30T20:29:03.552Z,2.00
2023-11-30T20:31:31.556Z,2.40
2023-11-30T20:33:59.598Z,2.17
2023-11-30T20:36:27.659Z,2.40
2023-11-30T20:38:55.636Z,2.75
2023-11-30T20:41:25.319Z,2.45
2023-11-30T20:43:54.319Z,2.70
2023-11-30T20:46:23.748Z,2.85
2023-11-30T20:48:51.833Z,2.20
2023-11-30T20:51:21.287Z,2.50
2023-11-30T20:53:49.465Z,1.90
2023-11-30T20:56:17.476Z,3.05
2023-11-30T20:58:47.736Z,2.25
2023-11-30T21:01:15.967Z,2.50
2023-11-30T21:03:45.499Z,2.55
2023-11-30T21:06:13.518Z,2.55
2023-11-30T21:08:41.514Z,2.83
2023-11-30T21:11:09.573Z,2.20
2023-11-30T21:13:37.545Z,2.60
2023-11-30T21:16:06.353Z,2.28
2023-11-30T21:18:35.712Z,2.67
2023-11-30T21:21:05.636Z,2.78
2023-11-30T21:23:33.902Z,2.63
2023-11-30T21:26:01.853Z,2.10
2023-11-30T21:28:29.810Z,2.55
2023-11-30T21:30:57.814Z,3.00
2023-11-30T21:33:25.879Z,3.75
2023-11-30T21:35:53.864Z,3.13
2023-11-30T21:38:23.201Z,3.33
2023-11-30T21:40:51.156Z,4.10
2023-11-30T21:43:19.151Z,4.30
2023-11-30T21:45:47.276Z,3.92
2023-11-30T21:48:15.362Z,4.15
2023-11-30T21:50:43.828Z,3.72
2023-11-30T21:53:12.428Z,5.43
2023-11-30T21:55:42.004Z,3.75
2023-11-30T21:58:10.222Z,4.18
2023-11-30T22:00:39.393Z,4.70
2023-11-30T22:03:07.714Z,3.97
2023-11-30T22:05:37.288Z,7.35
2023-11-30T22:08:06.081Z,4.50
2023-11-30T22:10:34.156Z,3.95
2023-11-30T22:13:03.919Z,3.47
2023-11-30T22:15:31.988Z,3.95
2023-11-30T22:18:00.963Z,3.67
2023-11-30T22:20:29.097Z,3.97
2023-11-30T22:22:57.117Z,3.92
2023-11-30T22:25:25.152Z,3.83
2023-11-30T22:27:53.156Z,4.10
2023-11-30T22:30:22.514Z,4.30
2023-11-30T22:32:50.466Z,3.50
2023-11-30T22:35:18.708Z,3.40
2023-11-30T22:37:46.777Z,4.38
2023-11-30T22:40:15.125Z,6.10
2023-11-30T22:42:43.119Z,5.00
2023-11-30T22:45:11.734Z,4.50
2023-11-30T22:47:41.133Z,4.35
2023-11-30T22:50:10.409Z,4.15
2023-11-30T22:52:38.576Z,4.88
2023-11-30T22:55:07.361Z,4.00
2023-11-30T22:57:35.472Z,4.38
2023-11-30T23:00:04.184Z,4.50
2023-11-30T23:02:32.496Z,4.93
2023-11-30T23:05:04.177Z,4.45
2023-11-30T23:07:32.199Z,4.45
2023-11-30T23:10:00.383Z,3.80
2023-11-30T23:12:28.424Z,4.15
2023-11-30T23:14:56.465Z,4.43
2023-11-30T23:17:24.482Z,4.72
2023-11-30T23:19:52.538Z,4.63
2023-11-30T23:22:21.930Z,5.00
2023-11-30T23:24:50.038Z,4.68
2023-11-30T23:27:18.049Z,5.60
2023-11-30T23:29:46.129Z,4.82
2023-11-30T23:32:14.614Z,4.47
2023-11-30T23:34:42.613Z,4.63
2023-11-30T23:37:10.644Z,4.40
2023-11-30T23:39:40.122Z,4.07
2023-11-30T23:42:08.257Z,4.72
2023-11-30T23:44:36.245Z,5.13
2023-11-30T23:47:04.325Z,4.72
2023-11-30T23:49:32.370Z,5.05
2023-11-30T23:52:00.729Z,4.80
2023-11-30T23:54:28.867Z,5.35
2023-11-30T23:56:58.237Z,4.85
2023-11-30T23:59:26.250Z,4.53
